地図

経路データ

SID SEASON NUMBER BASIN SUBBASIN NAME ISO_TIME NATURE LAT LON WMO_WIND WMO_PRES WMO_AGENCY TRACK_TYPE DIST2LAND LANDFALL IFLAG USA_AGENCY USA_ATCF_ID USA_LAT USA_LON USA_RECORD USA_STATUS USA_WIND USA_PRES USA_SSHS USA_R34_NE USA_R34_SE USA_R34_SW USA_R34_NW USA_R50_NE USA_R50_SE USA_R50_SW USA_R50_NW USA_R64_NE USA_R64_SE USA_R64_SW USA_R64_NW USA_POCI USA_ROCI USA_RMW USA_EYE TOKYO_LAT TOKYO_LON TOKYO_GRADE TOKYO_WIND TOKYO_PRES TOKYO_R50_DIR TOKYO_R50_LONG TOKYO_R50_SHORT TOKYO_R30_DIR TOKYO_R30_LONG TOKYO_R30_SHORT TOKYO_LAND CMA_LAT CMA_LON CMA_CAT CMA_WIND CMA_PRES HKO_LAT HKO_LON HKO_CAT HKO_WIND HKO_PRES NEWDELHI_LAT NEWDELHI_LON NEWDELHI_GRADE NEWDELHI_WIND NEWDELHI_PRES NEWDELHI_CI NEWDELHI_DP NEWDELHI_POCI REUNION_LAT REUNION_LON REUNION_TYPE REUNION_WIND REUNION_PRES REUNION_TNUM REUNION_CI REUNION_RMW REUNION_R34_NE REUNION_R34_SE REUNION_R34_SW REUNION_R34_NW REUNION_R50_NE REUNION_R50_SE REUNION_R50_SW REUNION_R50_NW REUNION_R64_NE REUNION_R64_SE REUNION_R64_SW REUNION_R64_NW BOM_LAT BOM_LON BOM_TYPE BOM_WIND BOM_PRES BOM_TNUM BOM_CI BOM_RMW BOM_R34_NE BOM_R34_SE BOM_R34_SW BOM_R34_NW BOM_R50_NE BOM_R50_SE BOM_R50_SW BOM_R50_NW BOM_R64_NE BOM_R64_SE BOM_R64_SW BOM_R64_NW BOM_ROCI BOM_POCI BOM_EYE BOM_POS_METHOD BOM_PRES_METHOD NADI_LAT NADI_LON NADI_CAT NADI_WIND NADI_PRES WELLINGTON_LAT WELLINGTON_LON WELLINGTON_WIND WELLINGTON_PRES DS824_LAT DS824_LON DS824_STAGE DS824_WIND DS824_PRES TD9636_LAT TD9636_LON TD9636_STAGE TD9636_WIND TD9636_PRES TD9635_LAT TD9635_LON TD9635_WIND TD9635_PRES TD9635_ROCI NEUMANN_LAT NEUMANN_LON NEUMANN_CLASS NEUMANN_WIND NEUMANN_PRES MLC_LAT MLC_LON MLC_CLASS MLC_WIND MLC_PRES USA_GUST BOM_GUST BOM_GUST_PER REUNION_GUST REUNION_GUST_PER USA_SEAHGT USA_SEARAD_NE USA_SEARAD_SE USA_SEARAD_SW USA_SEARAD_NW STORM_SPEED STORM_DIR
1997156S11192 1997 37 SP MM KELI 1997-06-05 00:00:00 TS -10.5000 192.000 main 580 562 O___________O_ jtwc_sh SH381997 -10.5000 -168.000 15 -1 -10.5000 -168.000 TC 15 7 297
1997156S11192 1997 37 SP MM KELI 1997-06-05 03:00:00 TS -10.3525 191.702 main 562 554 P___________P_ SH381997 -10.3525 -168.298 15 -1 -10.3525 -168.298 TC 15 7 297
1997156S11192 1997 37 SP MM KELI 1997-06-05 06:00:00 TS -10.2000 191.400 main 554 538 O___________O_ jtwc_sh SH381997 -10.2000 -168.600 15 -1 -10.2000 -168.600 TC 15 7 297
1997156S11192 1997 37 SP MM KELI 1997-06-05 09:00:00 TS -10.0425 191.092 main 546 531 P___________P_ SH381997 -10.0425 -168.908 15 -1 -10.0425 -168.908 TC 15 7 297
1997156S11192 1997 37 SP MM KELI 1997-06-05 12:00:00 TS -9.90000 190.800 main 532 521 O___________O_ jtwc_sh SH381997 -9.90000 -169.200 15 -1 -9.90000 -169.200 TC 15 6 294
1997156S11192 1997 37 SP MM KELI 1997-06-05 15:00:00 TS -9.79248 190.535 main 521 514 P___________P_ SH381997 -9.79248 -169.465 15 -1 -9.79248 -169.465 TC 15 5 292
1997156S11192 1997 37 SP MM KELI 1997-06-05 18:00:00 TS -9.70000 190.300 main 517 511 O___________O_ jtwc_sh SH381997 -9.70000 -169.700 15 -1 -9.70000 -169.700 TC 15 5 294
1997156S11192 1997 37 SP MM KELI 1997-06-05 21:00:00 TS -9.59249 190.085 main 514 509 P___________P_ SH381997 -9.59249 -169.915 15 -1 -9.59249 -169.915 TC 15 4 297
1997156S11192 1997 37 SP MM KELI 1997-06-06 00:00:00 TS -9.50000 189.900 main 513 508 O___________O_ jtwc_sh SH381997 -9.50000 -170.100 15 -1 -9.50000 -170.100 TC 15 4 294
1997156S11192 1997 37 SP MM KELI 1997-06-06 03:00:00 TS -9.44248 189.743 main 513 508 P___________P_ SH381997 -9.44248 -170.257 15 -1 -9.44248 -170.257 TC 15 3 289
1997156S11192 1997 37 SP MM KELI 1997-06-06 06:00:00 TS -9.40000 189.600 main 508 503 O___________O_ jtwc_sh SH381997 -9.40000 -170.400 15 -1 -9.40000 -170.400 TC 15 3 287
1997156S11192 1997 37 SP MM KELI 1997-06-06 09:00:00 TS -9.35000 189.443 main 499 499 P___________P_ SH381997 -9.35000 -170.557 15 -1 -9.35000 -170.557 TC 15 3 289
1997156S11192 1997 37 SP MM KELI 1997-06-06 12:00:00 TS -9.30000 189.300 main 505 501 O___________O_ jtwc_sh SH381997 -9.30000 -170.700 15 -1 -9.30000 -170.700 TC 15 3 292
1997156S11192 1997 37 SP MM KELI 1997-06-06 15:00:00 TS -9.24999 189.193 main 512 508 P___________P_ SH381997 -9.24999 -170.807 15 -1 -9.24999 -170.807 TC 15 2 297
1997156S11192 1997 37 SP MM KELI 1997-06-06 18:00:00 TS -9.20000 189.100 main 508 505 O___________O_ jtwc_sh SH381997 -9.20000 -170.900 15 -1 -9.20000 -170.900 TC 15 2 299
1997156S11192 1997 37 SP MM KELI 1997-06-06 21:00:00 TS -9.14999 189.008 main 515 512 P___________P_ SH381997 -9.14999 -170.992 15 -1 -9.14999 -170.992 TC 15 2 297
1997156S11192 1997 37 SP MM KELI 1997-06-07 00:00:00 TS -9.10000 188.900 main 512 509 O___________O_ jtwc_sh SH381997 -9.10000 -171.100 15 -1 -9.10000 -171.100 TC 15 3 292
1997156S11192 1997 37 SP MM KELI 1997-06-07 03:00:00 TS -9.05000 188.757 main 520 509 P___________P_ SH381997 -9.05000 -171.243 15 -1 -9.05000 -171.243 TC 15 3 289
1997156S11192 1997 37 SP MM KELI 1997-06-07 06:00:00 TS -9.00000 188.600 main 515 513 O___________O_ jtwc_sh SH381997 -9.00000 -171.400 15 -1 -9.00000 -171.400 TC 15 3 288
1997156S11192 1997 37 SP MM KELI 1997-06-07 09:00:00 TS -8.94999 188.450 main 524 520 P___________P_ SH381997 -8.94999 -171.550 15 -1 -8.94999 -171.550 TC 15 3 289
1997156S11192 1997 37 SP MM KELI 1997-06-07 12:00:00 TS -8.90000 188.300 main 520 519 O___________O_ jtwc_sh SH381997 -8.90000 -171.700 15 -1 -8.90000 -171.700 TC 15 3 290
1997156S11192 1997 37 SP MM KELI 1997-06-07 15:00:00 TS -8.84249 188.150 main 529 528 P___________P_ SH381997 -8.84249 -171.850 17 -1 -8.84249 -171.850 TC 17 3 289
1997156S11192 1997 37 SP MM KELI 1997-06-07 18:00:00 TS -8.80000 188.000 main 528 527 O___________O_ jtwc_sh SH381997 -8.80000 -172.000 20 -1 -8.80000 -172.000 TC 20 3 280
1997156S11192 1997 37 SP MM KELI 1997-06-07 21:00:00 TS -8.79249 187.850 main 527 526 P___________P_ SH381997 -8.79249 -172.150 20 -1 -8.79249 -172.150 TC 20 3 270
1997156S11192 1997 37 SP MM KELI 1997-06-08 00:00:00 TS -8.80000 187.700 main 526 526 O___________O_ jtwc_sh SH381997 -8.80000 -172.300 20 -1 -8.80000 -172.300 TC 20 3 267
1997156S11192 1997 37 SP MM KELI 1997-06-08 03:00:00 TS -8.80748 187.557 main 526 526 P___________P_ SH381997 -8.80748 -172.443 22 -1 -8.80748 -172.443 TC 22 3 270
1997156S11192 1997 37 SP MM KELI 1997-06-08 06:00:00 TS -8.80000 187.400 main 526 526 O___________O_ jtwc_sh SH381997 -8.80000 -172.600 25 -1 -8.80000 -172.600 TC 25 4 278
1997156S11192 1997 37 SP MM KELI 1997-06-08 09:00:00 TS -8.75750 187.207 main 526 526 P___________P_ SH381997 -8.75750 -172.793 25 -1 -8.75750 -172.793 TC 25 4 284
1997156S11192 1997 37 SP MM KELI 1997-06-08 12:00:00 TS -8.70000 187.000 main 538 538 O___________O_ jtwc_sh SH381997 -8.70000 -173.000 25 -1 -8.70000 -173.000 TC 25 4 285
1997156S11192 1997 37 SP MM KELI 1997-06-08 15:00:00 TS -8.64999 186.800 main 550 550 P___________P_ SH381997 -8.64999 -173.200 25 -1 -8.64999 -173.200 TC 25 4 296
1997156S11192 1997 37 SP MM KELI 1997-06-08 18:00:00 TS -8.50002 186.594 main 563 563 O___________O_ jtwc_sh SH381997 -8.60000 -173.400 25 -1 -8.60000 -173.400 TC 25 5 304
1997156S11192 1997 37 SP MM KELI 1997-06-08 21:00:00 TS -8.39589 186.424 main 577 577 P___________P_ SH381997 -8.55749 -173.600 25 -1 -8.55749 -173.600 TC 25 4 300
1997156S11192 1997 37 SP MM KELI 1997-06-09 00:00:00 TS -8.30909 186.255 main 590 590 O_______O___O_ jtwc_sh SH381997 -8.50000 -173.800 25 -1 -7.80000 -173.600 30 997 -8.50000 -173.800 TC 25 4 299
1997156S11192 1997 37 SP MM KELI 1997-06-09 03:00:00 TS -8.19398 186.055 main 605 605 P_______P___P_ SH381997 -8.39246 -173.985 27 -1 -7.76837 -173.881 30 997 -8.39246 -173.985 TC 27 5 291
1997156S11192 1997 37 SP MM KELI 1997-06-09 06:00:00 TS -8.13649 185.805 main 623 623 O_______P___O_ jtwc_sh SH381997 -8.30000 -174.200 30 -1 -7.76936 -174.190 30 997 -8.30000 -174.200 TC 30 6 276
1997156S11192 1997 37 SP MM KELI 1997-06-09 09:00:00 TS -8.13569 185.503 main 632 625 P_______P___P_ SH381997 -8.26995 -174.463 32 -1 -7.83570 -174.553 30 997 -8.26995 -174.463 TC 32 7 265
1997156S11192 1997 37 SP MM KELI 1997-06-09 12:00:00 TS -8.20000 185.133 main 636 634 O_______O___O_ jtwc_sh SH381997 -8.30000 -174.800 35 0 -8.00000 -175.000 30 997 -8.30000 -174.800 TC 35 8 257
1997156S11192 1997 37 SP MM KELI 1997-06-09 15:00:00 TS -8.32937 184.683 main 643 637 P_______P___P_ SH381997 -8.36246 -175.213 35 0 -8.26318 -175.526 30 997 -8.36246 -175.213 TC 35 10 252
1997156S11192 1997 37 SP MM KELI 1997-06-09 18:00:00 TS -8.50000 184.200 main 648 644 O_______O___O_ jtwc_sh SH381997 -8.50000 -175.700 35 0 -8.50000 -176.000 30 997 -8.50000 -175.700 TC 35 10 250
1997156S11192 1997 37 SP MM KELI 1997-06-09 21:00:00 TS -8.66575 183.760 main 653 653 P_______P___P_ SH381997 -8.73498 -176.235 37 0 -8.52729 -176.250 32 996 -8.73498 -176.235 TC 37 9 248
1997156S11192 1997 37 SP MM KELI 1997-06-10 00:00:00 TS -8.84615 183.315 35 995 nadi main 676 668 O_______O___O_ jtwc_sh SH381997 -9.00000 -176.800 40 0 -8.60000 -176.500 35 995 -8.60000 -176.500 35 995 -9.00000 -176.800 TC 40 10 245
1997156S11192 1997 37 SP MM KELI 1997-06-10 03:00:00 TS -9.09713 182.811 main 687 687 P______IP___P_ SH381997 -9.19245 -177.358 42 0 -9.00008 -176.985 37 992 -8.95503 -176.955 37 992 -9.19245 -177.358 TC 42 12 241
1997156S11192 1997 37 SP MM KELI 1997-06-10 06:00:00 TS -9.40000 182.287 40 990 nadi main 704 704 O_______O___O_ jtwc_sh SH381997 -9.40000 -177.900 45 0 -9.40000 -177.500 40 990 -9.40000 -177.500 40 990 -9.40000 -177.900 TC 45 12 238
1997156S11192 1997 37 SP MM KELI 1997-06-10 09:00:00 TS -9.74749 181.756 main 726 710 P______IP___P_ SH381997 -9.70748 -178.430 47 0 -9.78751 -178.057 42 988 -9.78751 -178.057 42 988 -9.70748 -178.430 TC 47 12 238
1997156S11192 1997 37 SP MM KELI 1997-06-10 12:00:00 TS -10.0500 181.250 45 987 nadi main 710 678 O_______O___O_ jtwc_sh SH381997 -10.0000 -178.900 50 0 -10.1000 -178.600 45 987 -10.1000 -178.600 45 987 -10.0000 -178.900 TC 50 10 242
1997156S11192 1997 37 SP MM KELI 1997-06-10 15:00:00 TS -10.2337 180.820 main 678 663 P______IP___P_ SH381997 -10.1799 -179.280 52 0 -10.2874 -179.080 47 986 -10.2874 -179.080 47 986 -10.1799 -179.280 TC 52 8 249
1997156S11192 1997 37 SP MM KELI 1997-06-10 18:00:00 TS -10.3500 180.450 50 985 nadi main 663 638 O_______O___O_ jtwc_sh SH381997 -10.3000 -179.600 55 0 -10.4000 -179.500 50 985 -10.4000 -179.500 50 985 -10.3000 -179.600 TC 55 7 252
1997156S11192 1997 37 SP MM KELI 1997-06-10 21:00:00 TS -10.4649 180.110 main 638 638 P______IP___P_ SH381997 -10.4150 -179.915 57 0 -10.5149 -179.865 52 982 -10.5149 -179.865 52 982 -10.4150 -179.915 TC 57 7 253
1997156S11192 1997 37 SP MM KELI 1997-06-11 00:00:00 TS -10.5500 179.800 55 980 nadi main 638 627 O_______O___O_ jtwc_sh SH381997 -10.5000 179.800 60 0 -10.6000 179.800 55 980 -10.6000 179.800 55 980 -10.5000 179.800 TC 60 6 256
1997156S11192 1997 37 SP MM KELI 1997-06-11 03:00:00 TS -10.6150 179.489 main 627 627 P______IP___P_ SH381997 -10.5650 179.542 62 0 -10.6650 179.435 57 977 -10.6650 179.435 57 977 -10.5650 179.542 TC 62 6 260
1997156S11192 1997 37 SP MM KELI 1997-06-11 06:00:00 TS -10.6500 179.200 60 975 nadi main 630 619 O_______O___O_ jtwc_sh SH381997 -10.6000 179.300 65 1 -10.7000 179.100 60 975 -10.7000 179.100 60 975 -10.6000 179.300 TC 65 6 264
1997156S11192 1997 37 SP MM KELI 1997-06-11 09:00:00 TS -10.6725 178.897 main 623 623 P______IP___P_ SH381997 -10.6300 179.013 67 1 -10.7150 178.782 62 972 -10.7150 178.782 62 972 -10.6300 179.013 TC 67 5 270
1997156S11192 1997 37 SP MM KELI 1997-06-11 12:00:00 TS -10.6500 178.700 65 970 nadi main 638 638 O_______O___O_ jtwc_sh SH381997 -10.6000 178.800 70 1 -10.7000 178.600 65 970 -10.7000 178.600 65 970 -10.6000 178.800 TC 70 2 295
1997156S11192 1997 37 SP MM KELI 1997-06-11 15:00:00 TS -10.5724 178.675 main 638 638 P______IP___P_ SH381997 -10.4574 178.717 75 1 -10.6875 178.632 67 967 -10.6875 178.632 67 967 -10.4574 178.717 TC 75 2 27
1997156S11192 1997 37 SP MM KELI 1997-06-11 18:00:00 TS -10.4500 178.800 70 965 nadi main 658 647 O_______O___O_ jtwc_sh SH381997 -10.3000 178.800 80 1 -10.6000 178.800 70 965 -10.6000 178.800 70 965 -10.3000 178.800 TC 80 4 43
1997156S11192 1997 37 SP MM KELI 1997-06-11 21:00:00 TS -10.2474 178.986 main 677 674 P______IP___P_ SH381997 -10.1900 179.040 85 2 -10.3049 178.933 72 962 -10.3049 178.933 72 962 -10.1900 179.040 TC 85 6 59
1997156S11192 1997 37 SP MM KELI 1997-06-12 00:00:00 TS -10.1500 179.300 75 960 nadi main 685 660 O_______O___O_ jtwc_sh SH381997 -10.2000 179.400 90 2 -10.1000 179.200 75 960 -10.1000 179.200 75 960 -10.2000 179.400 TC 90 8 96
1997156S11192 1997 37 SP MM KELI 1997-06-12 03:00:00 TS -10.3326 179.749 main 660 627 P______IP___P_ SH381997 -10.3975 179.785 95 2 -10.2677 179.712 77 957 -10.2677 179.712 77 957 -10.3975 179.785 TC 95 11 118
1997156S11192 1997 37 SP MM KELI 1997-06-12 06:00:00 TS -10.6500 180.250 80 955 nadi main 628 598 O_______O___O_ jtwc_sh SH381997 -10.7000 -179.800 100 3 -10.6000 -179.700 80 955 -10.6000 -179.700 80 955 -10.7000 -179.800 TC 100 11 123
1997156S11192 1997 37 SP MM KELI 1997-06-12 09:00:00 TS -10.9311 180.679 main 599 572 P______IP___P_ SH381997 -10.9849 -179.400 105 3 -10.8773 -179.242 80 955 -10.8773 -179.242 80 955 -10.9849 -179.400 TC 105 10 126
1997156S11192 1997 37 SP MM KELI 1997-06-12 12:00:00 TS -11.2500 181.100 80 955 nadi main 574 543 O_______O___O_ jtwc_sh SH381997 -11.3000 -179.000 110 3 -11.2000 -178.800 80 955 -11.2000 -178.800 80 955 -11.3000 -179.000 TC 110 11 129
1997156S11192 1997 37 SP MM KELI 1997-06-12 15:00:00 TS -11.6137 181.550 main 546 521 P______IP___P_ SH381997 -11.6349 -178.607 112 3 -11.5925 -178.293 77 957 -11.5925 -178.293 77 957 -11.6349 -178.607 TC 112 12 130
1997156S11192 1997 37 SP MM KELI 1997-06-12 18:00:00 TS -12.0000 182.000 75 960 nadi main 521 507 O_______O___O_ jtwc_sh SH381997 -12.0000 -178.200 115 4 -12.0000 -177.800 75 960 -12.0000 -177.800 75 960 -12.0000 -178.200 TC 115 12 131
1997156S11192 1997 37 SP MM KELI 1997-06-12 21:00:00 TS -12.3675 182.448 main 503 485 P______IP___P_ SH381997 -12.3925 -177.757 107 3 -12.3425 -177.347 72 962 -12.3425 -177.347 72 962 -12.3925 -177.757 TC 107 11 132
1997156S11192 1997 37 SP MM KELI 1997-06-13 00:00:00 TS -12.7500 182.850 70 965 nadi main 474 445 O_______O___O_ jtwc_sh SH381997 -12.8000 -177.300 100 3 -12.7000 -177.000 70 965 -12.7000 -177.000 70 965 -12.8000 -177.300 TC 100 11 140
1997156S11192 1997 37 SP MM KELI 1997-06-13 03:00:00 TS -13.1899 183.154 main 434 411 P______IP___P_ SH381997 -13.2074 -176.850 92 2 -13.1723 -176.842 67 967 -13.1723 -176.842 67 967 -13.2074 -176.850 TC 92 10 145
1997156S11192 1997 37 SP MM KELI 1997-06-13 06:00:00 TS -13.6000 183.450 65 970 nadi main 400 370 O_______O___O_ jtwc_sh SH381997 -13.6000 -176.400 85 2 -13.6000 -176.700 65 970 -13.6000 -176.700 65 970 -13.6000 -176.400 TC 85 10 137
1997156S11192 1997 37 SP MM KELI 1997-06-13 09:00:00 TS -13.9050 183.831 main 370 331 P______IP___P_ SH381997 -13.9725 -175.942 77 1 -13.8375 -176.395 62 972 -13.8375 -176.395 62 972 -13.9725 -175.942 TC 77 10 125
1997156S11192 1997 37 SP MM KELI 1997-06-13 12:00:00 TS -14.1500 184.250 60 975 nadi main 320 294 O_______O___O_ jtwc_sh SH381997 -14.3000 -175.500 70 1 -14.0000 -176.000 60 975 -14.0000 -176.000 60 975 -14.3000 -175.500 TC 70 9 121
1997156S11192 1997 37 SP MM KELI 1997-06-13 15:00:00 TS -14.3899 184.664 main 288 257 P______IP___P_ SH381997 -14.5723 -175.107 65 1 -14.2075 -175.565 57 977 -14.2075 -175.565 57 977 -14.5723 -175.107 TC 65 9 119
1997156S11192 1997 37 SP MM KELI 1997-06-13 18:00:00 TS -14.6000 185.100 55 980 nadi main 257 227 O_______O___O_ jtwc_sh SH381997 -14.8000 -174.700 60 0 -14.4000 -175.100 55 980 -14.4000 -175.100 55 980 -14.8000 -174.700 TC 60 9 114
1997156S11192 1997 37 SP MM KELI 1997-06-13 21:00:00 TS -14.7710 185.545 main 233 194 P______IP___P_ SH381997 -14.9848 -174.237 57 0 -14.5573 -174.672 52 982 -14.5573 -174.672 52 982 -14.9848 -174.237 TC 57 10 111
1997156S11192 1997 37 SP MM KELI 1997-06-14 00:00:00 TS -14.9500 186.050 50 985 nadi main 186 169 O_______O___O_ jtwc_sh SH381997 -15.2000 -173.700 55 0 -14.7000 -174.200 50 985 -14.7000 -174.200 50 985 -15.2000 -173.700 TC 55 11 110
1997156S11192 1997 37 SP MM KELI 1997-06-14 03:00:00 TS -15.1546 186.612 main 178 169 P______IP___P_ SH381997 -15.5123 -173.095 55 0 -14.7969 -173.682 50 985 -14.7969 -173.682 50 985 -15.5123 -173.095 TC 55 13 113
1997156S11192 1997 37 SP MM KELI 1997-06-14 06:00:00 TS -15.4500 187.300 50 985 nadi main 179 190 O_______O___O_ jtwc_sh SH381997 -15.9000 -172.400 55 0 -15.0000 -173.000 50 985 -15.0000 -173.000 50 985 -15.9000 -172.400 TC 55 16 116
1997156S11192 1997 37 SP MM KELI 1997-06-14 09:00:00 TS -15.8554 188.133 main 237 237 P______IP___P_ SH381997 -16.3047 -171.644 52 0 -15.4097 -172.097 47 986 -15.4025 -172.082 47 986 -16.3047 -171.644 TC 52 20 119
1997156S11192 1997 37 SP MM KELI 1997-06-14 12:00:00 TS -16.4000 189.100 45 987 nadi main 322 322 O_______O___O_ jtwc_sh SH381997 -16.8000 -170.800 50 0 -16.0000 -171.000 45 987 -16.0000 -171.000 45 987 -16.8000 -170.800 TC 50 23 122
1997156S11192 1997 37 SP MM KELI 1997-06-14 15:00:00 TS -17.0746 190.130 main 444 444 P______IP___P_ SH381997 -17.4120 -169.894 47 0 -16.7274 -169.788 45 987 -16.7467 -169.902 45 987 -17.4120 -169.894 TC 47 25 125
1997156S11192 1997 37 SP MM KELI 1997-06-14 18:00:00 TS -17.8250 191.250 45 987 nadi main 583 576 O_______O___O_ jtwc_sh SH381997 -18.1000 -168.900 45 0 -17.5000 -168.500 45 987 -17.6000 -168.700 45 987 -18.1000 -168.900 TC 45 26 124
1997156S11192 1997 37 SP MM KELI 1997-06-14 21:00:00 TS -18.5509 192.406 main 727 727 P______IP___P_ SH381997 -18.7768 -167.844 42 0 -18.2075 -167.324 42 988 -18.4425 -167.364 42 988 -18.7768 -167.844 TC 42 27 121
1997156S11192 1997 37 SP MM KELI 1997-06-15 00:00:00 TS -19.2429 193.700 40 990 nadi main 872 872 O_______O___O_ jtwc_sh SH381997 -19.5000 -166.700 40 0 -18.8000 -166.000 40 990 -19.3000 -166.000 40 990 -19.5000 -166.700 TC 40 29 119
1997156S11192 1997 37 SP MM KELI 1997-06-15 03:00:00 TS -19.9455 195.054 main 1033 1033 P______IP___P_ SH381997 -20.2844 -165.476 40 0 -19.2079 -164.398 37 992 -20.3443 -164.963 37 992 -20.2844 -165.476 TC 40 31 112
1997156S11192 1997 37 SP MM KELI 1997-06-15 06:00:00 TS -20.4200 196.760 35 994 nadi main 1208 1208 O_______O___O_ jtwc_sh SH381997 -21.1000 -164.200 40 0 -19.5000 -162.500 35 994 -21.0000 -163.500 35 995 -21.1000 -164.200 TC 40 40 92
1997156S11192 1997 37 SP MM KELI 1997-06-15 09:00:00 NR -20.0673 199.364 main 1420 1420 _______IP_____ SH381997 -1 -19.6510 -160.355 32 994 -20.4836 -160.917 32 996 TC 49 85
1997156S11192 1997 37 SP MM KELI 1997-06-15 12:00:00 NR -20.0000 202.000 30 994 nadi main 1661 1661 ________O_____ -1 -20.0000 -158.000 30 994 -20.0000 -158.000 30 997 49 98
1997156S11192 1997 37 SP MM KELI 1997-06-15 15:00:00 NR -20.7920 204.534 main 1936 1936 _______IP_____ -1 -20.8499 -155.501 30 994 -20.7342 -155.432 30 997 51 113
1997156S11192 1997 37 SP MM KELI 1997-06-15 18:00:00 NR -22.0000 207.000 30 994 nadi main 2226 2226 ________O_____ -1 -22.0000 -153.000 30 994 -22.0000 -153.000 30 997 51 118
1997156S11192 1997 37 SP MM KELI 1997-06-15 21:00:00 NR -23.1359 209.367 main 2500 2500 _______IP_____ -1 -23.1359 -150.633 30 994 -23.1359 -150.633 30 995 48 121
1997156S11192 1997 37 SP MM KELI 1997-06-16 00:00:00 NR -24.5000 211.500 30 994 nadi main 2756 2756 ________O_____ -1 -24.5000 -148.500 30 994 -24.5000 -148.500 30 994 46 130
1997156S11192 1997 37 SP MM KELI 1997-06-16 03:00:00 NR -26.1285 213.226 main 2981 2981 _______IP_____ -1 -26.1285 -146.774 30 994 -26.1285 -146.774 30 993 47 138
1997156S11192 1997 37 SP MM KELI 1997-06-16 06:00:00 NR -28.0000 215.000 30 992 wellington main 3228 3228 ________O_____ -1 -28.0000 -145.000 30 995 -28.0000 -145.000 30 992 54 137
1997156S11192 1997 37 SP MM KELI 1997-06-16 09:00:00 NR -30.0725 217.350 main 3536 3536 ________P_____ -1 -29.9908 -142.704 -30.1133 -142.623 30 991 59 133
1997156S11192 1997 37 SP MM KELI 1997-06-16 12:00:00 NR -32.0000 220.000 30 990 wellington main 3791 3791 ________O_____ -1 -32.0000 -140.000 -32.0000 -140.000 30 990 55 124
1997156S11192 1997 37 SP MM KELI 1997-06-16 15:00:00 NR -33.1531 222.697 main 3979 3979 ________P_____ -1 -33.1531 -137.303 30 990 46 116
1997156S11192 1997 37 SP MM KELI 1997-06-16 18:00:00 NR -34.0000 225.000 30 990 wellington main 4149 4149 ________O_____ -1 -34.0000 -135.000 30 990 36 121
1997156S11192 1997 37 SP MM KELI 1997-06-16 21:00:00 NR -34.9906 226.446 main 4234 4163 ________P_____ -1 -34.9906 -133.554 30 988 29 134
1997156S11192 1997 37 SP MM KELI 1997-06-17 00:00:00 NR -36.0000 227.500 30 986 wellington main 4152 4060 ________O_____ -1 -36.0000 -132.500 30 986 23 142
1997156S11192 1997 37 SP MM KELI 1997-06-17 03:00:00 NR -36.8083 228.176 main 4059 3930 ________P_____ -1 -36.8083 -131.824 30 982 28 135
1997156S11192 1997 37 SP MM KELI 1997-06-17 06:00:00 NR -38.0000 230.000 30 978 wellington main 3919 3711 ________O_____ -1 -38.0000 -130.000 30 978 59 122
1997156S11192 1997 37 SP MM KELI 1997-06-17 09:00:00 NR -39.9122 234.515 main 3700 3453 ________P_____ -1 -39.9122 -125.485 30 978 93 115
1997156S11192 1997 37 SP MM KELI 1997-06-17 12:00:00 NR -42.0000 241.000 main 3419 ________O_____ -1 -42.0000 -119.000 30 978 106 113

デジタル台風データ・検索

IBTrACS Databaseについて

本データベースは、米国NOAAが公開する1842年以降の世界の熱帯低気圧のベストトラックデータアーカイブInternational Best Track Archive for Climate Stewardship (IBTrACS)を、ウェブで閲覧しやすい形式に変換したものです。

最終更新日:2021-10-21